SBRJSBSJ

Guest
Details From SBRJ - Santos-Dumont
To SBSJ - Sao Jose Dos Campos
Flight Number -
Tags generated
Created
Modified
Stats Distance 150 nm / 279 km
Max Altitude 20,100 ft / 6,126 m
Waypoints 3
Social Downloads 0
Likes 0
Share VATSIM

Download

Looking for another format? Having issues loading an existing format? Contact us
Advertisement - Login to hide

Notes

Basic altitude profile: - Ascent Rate: 2500ft/min - Ascent Speed: 250kts - Cruise Altitude: 35000ft - Cruise Speed: 420kts - Descent Rate: 1500ft/min - Descent Speed: 250kts Options: - Use NATs: yes - Use PACOTS: yes - Use low airways: yes - Use high airways: yes

Route

SBRJ GEDS SBSJ

ID Type Via Altitude Latitude Longitude Leg Dist Tot Dist Heading (true) Name
O SBRJ APT - 0 ft / 0 m -22.91046˚ -43.16313˚ - 0 nm - Santos-Dumont
GEDS APT - 20,100 ft / 6,126 m -23.05700˚ -44.17400˚ 56 nm 56 nm 261° / 261° -
O SBSJ APT - 0 ft / 0 m -23.22817˚ -45.86274˚ 93 nm 150 nm 263° / 264° Sao Jose Dos Campos

Altitude Profile

Advertisement - Login to hide

SBRJ

Details ICAO SBRJ (SDU)
Name Santos-Dumont
Region Brazil
Timezone Unknown (UTC+0.0)
Stats Elevation 11 ft / 3 m (AMSL)
Location -22.910460° -43.163133°
Runways 2
Magnetic Variation 22.826° W

METAR

SBRJ 261400Z 34006KT 9999 FEW023 26/19 Q1022

Decode

TAF

TAF SBRJ 260800Z 2612/2624 05005KT 9999 SCT015 TX26/2618Z TN21/2623Z BECMG 2614/2616 15010KT SCT020 BECMG 2621/2623 17005KT RMK PGZ

Decode

Departure Runways

ID Width Length Bearing (true) Bearing (mag) Surface Threshold Offset Overrun Length
02L 98 ft / 30 m 4,154 ft / 1,266 m 358.02° 20.85° Asphalt 0 ft / 0 m 80 ft / 24 m
02R 138 ft / 42 m 4,361 ft / 1,329 m 358.01° 20.84° Asphalt 0 ft / 0 m 80 ft / 24 m
20L 138 ft / 42 m 4,361 ft / 1,329 m 178.01° 200.84° Asphalt 0 ft / 0 m 80 ft / 24 m
20R 98 ft / 30 m 4,154 ft / 1,266 m 178.02° 200.85° Asphalt 0 ft / 0 m 95 ft / 29 m

SBSJ

Details ICAO SBSJ (SJK)
Name Sao Jose Dos Campos
Region Brazil
Timezone America/Sao_Paulo (UTC-3.0)
Stats Elevation 2,120 ft / 646 m (AMSL)
Location -23.228171° -45.862738°
Runways 1
Magnetic Variation 21.761° W

METAR

SBSJ 261400Z 03006KT 7000 SCT017 21/15 Q1024

Decode

TAF

TAF SBSJ 260800Z 2612/2712 02005KT 7000 SCT015 TX26/2617Z TN15/2709Z BECMG 2614/2616 12005KT 9999 SCT025 BECMG 2618/2621 15010KT BECMG 2700/2702 11005KT FEW020 RMK PGZ

Decode

Destination Runways

ID Width Length Bearing (true) Bearing (mag) Surface Threshold Offset Overrun Length
15 148 ft / 45 m 8,741 ft / 2,664 m 135.13° 156.89° Asphalt 0 ft / 0 m 0 ft / 0 m
33 148 ft / 45 m 8,741 ft / 2,664 m 315.12° 336.88° Asphalt 0 ft / 0 m 0 ft / 0 m

Approach Navaids

Runway Type Ident Frequency Range Bearing (true) Bearing (mag) Slope Elevation
15 Localiser ISJ 110.30 MHz 18 nm / 33 km 134.95° 156.71° - 2,120 ft / 646 m (AMSL)
15 Glidescope ISJ 110.30 MHz 10 nm / 19 km 135.13° 156.89° 3.00° 2,120 ft / 646 m (AMSL)
15 DME ISJ 110.30 MHz 18 nm / 33 km - - - 2,120 ft / 646 m (AMSL)

Popular Alternatives